createdAt,value
2018-07-23T00:01:30.227Z,16.10
2018-07-23T00:03:58.723Z,13.43
2018-07-23T00:06:27.219Z,11.43
2018-07-23T00:08:55.648Z,12.27
2018-07-23T00:11:25.554Z,12.53
2018-07-23T00:13:54.066Z,15.60
2018-07-23T00:16:22.570Z,9.50
2018-07-23T00:18:51.022Z,12.93
2018-07-23T00:21:19.761Z,11.30
2018-07-23T00:23:48.400Z,12.23
2018-07-23T00:26:16.808Z,17.90
2018-07-23T00:28:45.426Z,19.00
2018-07-23T00:31:13.999Z,11.67
2018-07-23T00:33:42.502Z,14.37
2018-07-23T00:36:11.008Z,14.07
2018-07-23T00:38:39.902Z,10.60
2018-07-23T00:41:08.407Z,11.40
2018-07-23T00:43:36.957Z,12.40
2018-07-23T00:46:05.478Z,23.67
2018-07-23T00:48:33.899Z,12.57
2018-07-23T00:51:02.345Z,11.17
2018-07-23T00:53:30.798Z,14.57
2018-07-23T00:55:59.251Z,14.73
2018-07-23T00:58:27.686Z,12.20
2018-07-23T01:00:56.257Z,13.03
2018-07-23T01:03:24.804Z,12.87
2018-07-23T01:05:53.305Z,13.93
2018-07-23T01:08:21.991Z,15.63
2018-07-23T01:10:50.470Z,12.43
2018-07-23T01:13:18.869Z,15.83
2018-07-23T01:15:47.275Z,14.97
2018-07-23T01:18:15.730Z,15.87
2018-07-23T01:20:44.163Z,11.83
2018-07-23T01:23:12.652Z,19.03
2018-07-23T01:25:41.189Z,12.23
2018-07-23T01:28:09.603Z,14.53
2018-07-23T01:30:38.087Z,12.43
2018-07-23T01:33:06.669Z,10.43
2018-07-23T01:35:35.211Z,11.07
2018-07-23T01:38:03.752Z,11.30
2018-07-23T01:40:35.158Z,11.33
2018-07-23T01:43:03.754Z,11.47
2018-07-23T01:45:32.202Z,12.93
2018-07-23T01:48:00.660Z,11.37
2018-07-23T01:50:29.312Z,12.07
2018-07-23T01:52:58.043Z,11.30
2018-07-23T01:55:26.580Z,13.50
2018-07-23T01:57:55.133Z,15.23
2018-07-23T02:00:24.948Z,12.47
2018-07-23T02:02:53.367Z,12.83
2018-07-23T02:05:22.043Z,11.53
2018-07-23T02:07:50.631Z,13.43
2018-07-23T02:10:19.204Z,14.27
2018-07-23T02:12:48.084Z,13.00
2018-07-23T02:15:16.532Z,15.27
2018-07-23T02:17:45.024Z,22.10
2018-07-23T02:20:13.731Z,22.40
2018-07-23T02:22:42.190Z,19.67
2018-07-23T02:25:10.786Z,25.60
2018-07-23T02:27:39.322Z,27.90
2018-07-23T02:30:07.863Z,26.33
2018-07-23T02:32:36.428Z,19.70
2018-07-23T02:35:04.923Z,20.53
2018-07-23T02:37:33.417Z,18.53
2018-07-23T02:40:01.965Z,20.23
2018-07-23T02:42:30.506Z,24.07
2018-07-23T02:44:59.035Z,20.83
2018-07-23T02:47:29.259Z,23.47
2018-07-23T02:49:57.823Z,18.93
2018-07-23T02:52:26.441Z,17.87
2018-07-23T02:54:54.855Z,16.20
2018-07-23T02:57:23.427Z,16.03
2018-07-23T02:59:51.893Z,15.67
2018-07-23T03:02:20.441Z,19.93
2018-07-23T03:04:48.864Z,18.83
2018-07-23T03:07:17.381Z,16.77
2018-07-23T03:09:45.931Z,20.43
2018-07-23T03:12:20.830Z,18.70
2018-07-23T03:14:49.270Z,17.40
2018-07-23T03:17:18.987Z,15.87
2018-07-23T03:19:47.471Z,15.83
2018-07-23T03:22:15.910Z,17.67
2018-07-23T03:24:44.435Z,13.60
2018-07-23T03:27:12.957Z,12.90
2018-07-23T03:29:41.398Z,18.27
2018-07-23T03:32:10.011Z,17.07
2018-07-23T03:34:38.419Z,19.43
2018-07-23T03:37:06.864Z,16.73
2018-07-23T03:39:35.370Z,16.37
2018-07-23T03:42:03.878Z,17.07
2018-07-23T03:44:32.355Z,16.33
2018-07-23T03:47:00.842Z,14.40
2018-07-23T03:49:29.426Z,18.57
2018-07-23T03:51:57.888Z,14.73
2018-07-23T03:54:26.387Z,18.77
2018-07-23T03:56:54.964Z,21.63
2018-07-23T03:59:23.574Z,14.07
2018-07-23T04:01:52.044Z,17.30
2018-07-23T04:04:20.647Z,12.63
2018-07-23T04:06:49.598Z,15.13
2018-07-23T04:09:18.159Z,13.87
2018-07-23T04:11:46.664Z,11.97
2018-07-23T04:14:15.567Z,11.13
2018-07-23T04:16:43.988Z,9.70
2018-07-23T04:19:12.526Z,10.43
2018-07-23T04:21:40.937Z,10.73
2018-07-23T04:24:09.344Z,10.77
2018-07-23T04:26:37.860Z,11.00
2018-07-23T04:29:06.357Z,11.03
2018-07-23T04:31:35.140Z,10.47
2018-07-23T04:34:03.801Z,10.53
2018-07-23T04:36:32.567Z,10.47
2018-07-23T04:39:01.929Z,9.90
2018-07-23T04:41:30.904Z,10.00
2018-07-23T04:43:59.410Z,9.70
2018-07-23T04:46:28.610Z,11.23
2018-07-23T04:48:57.131Z,12.17
2018-07-23T04:51:25.714Z,17.07
2018-07-23T04:53:54.630Z,13.60
2018-07-23T04:56:25.203Z,16.97
2018-07-23T04:58:53.618Z,15.10
2018-07-23T05:01:22.242Z,16.70
2018-07-23T05:03:50.768Z,12.50
2018-07-23T05:06:19.187Z,15.53
2018-07-23T05:08:47.696Z,12.67
2018-07-23T05:11:16.186Z,12.67
2018-07-23T05:13:44.712Z,10.90
2018-07-23T05:16:13.160Z,10.90
2018-07-23T05:18:41.879Z,9.33
2018-07-23T05:21:10.445Z,8.60
2018-07-23T05:23:39.160Z,9.50
2018-07-23T05:26:08.272Z,9.17
2018-07-23T05:28:36.832Z,9.90
2018-07-23T05:31:05.491Z,9.23
2018-07-23T05:33:34.101Z,9.87
2018-07-23T05:36:02.603Z,9.63
2018-07-23T05:38:31.038Z,9.97
2018-07-23T05:40:59.508Z,9.13
2018-07-23T05:43:28.064Z,9.93
2018-07-23T05:45:56.650Z,9.63
2018-07-23T05:48:25.324Z,8.70
2018-07-23T05:50:53.772Z,8.60
2018-07-23T05:53:22.422Z,8.47
2018-07-23T05:55:50.993Z,8.37
2018-07-23T05:58:19.490Z,7.67
2018-07-23T06:00:47.917Z,7.53
2018-07-23T06:03:16.407Z,9.77
2018-07-23T06:05:44.824Z,8.83
2018-07-23T06:08:13.232Z,8.13
2018-07-23T06:10:41.729Z,10.80
2018-07-23T06:13:10.284Z,9.10
2018-07-23T06:15:38.728Z,8.90
2018-07-23T06:18:07.659Z,9.27
2018-07-23T06:20:36.280Z,10.33
2018-07-23T06:23:04.787Z,9.50
2018-07-23T06:25:33.306Z,13.97
2018-07-23T06:28:01.777Z,11.10
2018-07-23T06:30:30.428Z,14.40
2018-07-23T06:32:58.892Z,11.60
2018-07-23T06:35:27.371Z,10.97
2018-07-23T06:37:56.023Z,11.13
2018-07-23T06:40:24.562Z,10.97
2018-07-23T06:42:53.359Z,10.97
2018-07-23T06:45:21.942Z,10.73
2018-07-23T06:47:50.352Z,11.03
2018-07-23T06:50:19.604Z,12.03
2018-07-23T06:52:48.342Z,10.40
2018-07-23T06:55:17.460Z,10.50
2018-07-23T06:57:46.015Z,11.90
2018-07-23T07:00:14.504Z,10.77
2018-07-23T07:02:43.027Z,12.70
2018-07-23T07:05:11.465Z,12.43
2018-07-23T07:07:40.203Z,13.87
2018-07-23T07:10:08.682Z,13.20
2018-07-23T07:12:37.151Z,13.20
2018-07-23T07:15:05.936Z,12.23
2018-07-23T07:17:34.371Z,13.80
2018-07-23T07:20:02.922Z,14.03
2018-07-23T07:22:31.472Z,13.90
2018-07-23T07:24:59.941Z,14.80
2018-07-23T07:27:29.207Z,15.70
2018-07-23T07:29:57.601Z,13.70
2018-07-23T07:32:26.060Z,14.73
2018-07-23T07:34:54.394Z,15.27
2018-07-23T07:37:22.927Z,14.57
2018-07-23T07:39:51.491Z,14.40
2018-07-23T07:42:22.106Z,15.07
2018-07-23T07:44:50.635Z,17.13
2018-07-23T07:47:19.090Z,19.20
2018-07-23T07:49:47.520Z,18.73
2018-07-23T07:52:16.314Z,18.73
2018-07-23T07:54:45.896Z,18.47
2018-07-23T07:57:14.555Z,19.10
2018-07-23T07:59:43.035Z,18.70
2018-07-23T08:02:11.463Z,19.40
2018-07-23T08:04:39.972Z,19.70
2018-07-23T08:07:08.534Z,21.03
2018-07-23T08:09:36.992Z,18.67
2018-07-23T08:12:05.419Z,20.30
2018-07-23T08:14:33.852Z,21.87
2018-07-23T08:17:03.106Z,18.43
2018-07-23T08:19:31.710Z,18.30
2018-07-23T08:22:00.350Z,17.77
2018-07-23T08:24:28.851Z,18.43
2018-07-23T08:26:56.969Z,16.07
2018-07-23T08:29:25.558Z,16.07
2018-07-23T08:31:54.110Z,16.77
2018-07-23T08:34:22.688Z,16.43
2018-07-23T08:36:51.261Z,17.17
2018-07-23T08:39:19.812Z,15.00
2018-07-23T08:41:48.317Z,14.83
2018-07-23T08:44:17.059Z,14.83
2018-07-23T08:46:45.590Z,16.90
2018-07-23T08:49:14.340Z,14.90
2018-07-23T08:51:42.807Z,15.03
2018-07-23T08:54:11.360Z,14.10
2018-07-23T08:56:39.866Z,16.60
2018-07-23T08:59:08.730Z,12.83
2018-07-23T09:01:37.360Z,13.17
2018-07-23T09:04:06.524Z,13.17
2018-07-23T09:06:35.131Z,11.57
2018-07-23T09:09:04.528Z,12.23
2018-07-23T09:11:33.105Z,13.90
2018-07-23T09:14:01.549Z,13.70
2018-07-23T09:16:30.067Z,13.10
2018-07-23T09:18:58.535Z,12.60
2018-07-23T09:21:27.060Z,12.97
2018-07-23T09:23:55.741Z,12.63
2018-07-23T09:26:24.261Z,11.73
2018-07-23T09:28:53.990Z,11.23
2018-07-23T09:31:22.777Z,11.17
2018-07-23T09:33:51.242Z,11.90
2018-07-23T09:36:19.742Z,12.80
2018-07-23T09:38:48.579Z,10.97
2018-07-23T09:41:17.048Z,12.37
2018-07-23T09:43:45.602Z,12.67
2018-07-23T09:46:14.139Z,12.73
2018-07-23T09:48:42.610Z,12.67
2018-07-23T09:51:11.098Z,13.10
2018-07-23T09:53:39.575Z,13.40
2018-07-23T09:56:08.583Z,14.87
2018-07-23T09:58:37.126Z,13.30
2018-07-23T10:01:12.015Z,12.93
2018-07-23T10:03:41.383Z,13.10
2018-07-23T10:06:09.442Z,13.27
2018-07-23T10:08:37.879Z,12.80
2018-07-23T10:11:06.152Z,13.77
2018-07-23T10:13:34.752Z,13.70
2018-07-23T10:16:02.894Z,13.73
2018-07-23T10:18:31.392Z,14.37
2018-07-23T10:20:59.944Z,14.33
2018-07-23T10:23:28.825Z,14.07
2018-07-23T10:25:57.412Z,13.50
2018-07-23T10:28:26.122Z,11.13
2018-07-23T10:30:54.579Z,13.17
2018-07-23T10:33:23.021Z,12.97
2018-07-23T10:35:51.478Z,11.27
2018-07-23T10:38:19.942Z,14.43
2018-07-23T10:40:48.401Z,13.00
2018-07-23T10:43:16.949Z,12.77
2018-07-23T10:45:45.510Z,12.57
2018-07-23T10:48:14.036Z,12.73
2018-07-23T10:50:42.528Z,12.80
2018-07-23T10:53:11.073Z,12.80
2018-07-23T10:55:39.607Z,12.33
2018-07-23T10:58:07.860Z,13.17
2018-07-23T11:00:36.334Z,13.70
2018-07-23T11:03:04.800Z,12.80
2018-07-23T11:05:33.629Z,12.20
2018-07-23T11:08:01.858Z,12.43
2018-07-23T11:10:30.486Z,11.57
2018-07-23T11:12:58.964Z,10.93
2018-07-23T11:15:27.415Z,12.03
2018-07-23T11:17:55.945Z,11.40
2018-07-23T11:20:24.396Z,11.93
2018-07-23T11:22:52.862Z,10.63
2018-07-23T11:25:39.087Z,14.07
2018-07-23T11:27:49.975Z,12.17
2018-07-23T11:30:18.419Z,9.87
2018-07-23T11:32:46.889Z,9.23
2018-07-23T11:35:15.492Z,9.40
2018-07-23T11:37:43.897Z,9.17
2018-07-23T11:40:12.391Z,9.23
2018-07-23T11:42:40.971Z,10.10
2018-07-23T11:45:09.575Z,10.13
2018-07-23T11:47:38.041Z,10.20
2018-07-23T11:50:06.752Z,11.23
2018-07-23T11:52:35.430Z,11.27
2018-07-23T11:55:03.925Z,9.73
2018-07-23T11:57:32.371Z,10.50
2018-07-23T12:00:01.073Z,10.37
2018-07-23T12:02:29.512Z,10.77
2018-07-23T12:04:58.167Z,9.83
2018-07-23T12:07:26.403Z,9.70
2018-07-23T12:09:54.870Z,9.93
2018-07-23T12:12:23.394Z,10.10
2018-07-23T12:14:51.827Z,11.73
2018-07-23T12:17:21.740Z,9.60
2018-07-23T12:19:50.358Z,8.80
2018-07-23T12:22:18.899Z,9.53
2018-07-23T12:24:47.378Z,9.03
2018-07-23T12:27:15.847Z,9.00
2018-07-23T12:29:44.327Z,8.40
2018-07-23T12:32:12.899Z,9.67
2018-07-23T12:34:41.964Z,9.27
2018-07-23T12:37:10.515Z,9.33
2018-07-23T12:39:39.125Z,7.67
2018-07-23T12:42:07.575Z,9.73
2018-07-23T12:44:36.032Z,10.60
2018-07-23T12:47:04.574Z,7.73
2018-07-23T12:49:33.010Z,8.90
2018-07-23T12:52:02.191Z,9.07
2018-07-23T12:54:30.699Z,7.50
2018-07-23T12:56:59.279Z,8.97
2018-07-23T12:59:27.866Z,8.97
2018-07-23T13:01:56.446Z,8.03
2018-07-23T13:04:24.871Z,8.07
2018-07-23T13:06:53.998Z,8.47
2018-07-23T13:09:22.551Z,9.57
2018-07-23T13:11:51.016Z,9.07
2018-07-23T13:14:19.603Z,10.10
2018-07-23T13:16:48.149Z,9.00
2018-07-23T13:19:16.603Z,8.40
2018-07-23T13:21:45.007Z,8.37
2018-07-23T13:24:13.474Z,8.40
2018-07-23T13:26:42.085Z,8.20
2018-07-23T13:29:10.954Z,8.53
2018-07-23T13:31:39.479Z,7.97
2018-07-23T13:34:07.934Z,8.63
2018-07-23T13:36:37.071Z,8.73
2018-07-23T13:39:08.887Z,9.23
2018-07-23T13:41:37.492Z,8.20
2018-07-23T13:44:06.015Z,9.03
2018-07-23T13:46:34.601Z,8.60
2018-07-23T13:49:03.305Z,8.57
2018-07-23T13:51:31.748Z,12.13
2018-07-23T13:54:01.755Z,8.87
2018-07-23T13:56:30.264Z,13.10
2018-07-23T13:58:59.176Z,8.27
2018-07-23T14:01:27.704Z,8.20
2018-07-23T14:03:56.213Z,8.13
2018-07-23T14:06:24.868Z,9.00
2018-07-23T14:08:53.354Z,10.10
2018-07-23T14:11:21.851Z,7.87
2018-07-23T14:13:50.325Z,7.83
2018-07-23T14:16:18.795Z,9.13
2018-07-23T14:18:47.504Z,7.67
2018-07-23T14:21:16.032Z,7.43
2018-07-23T14:23:44.524Z,7.63
2018-07-23T14:26:12.991Z,7.10
2018-07-23T14:28:42.293Z,7.33
2018-07-23T14:31:10.930Z,7.73
2018-07-23T14:33:39.531Z,6.97
2018-07-23T14:36:08.250Z,6.47
2018-07-23T14:38:36.892Z,6.60
2018-07-23T14:41:05.399Z,7.33
2018-07-23T14:43:33.860Z,7.13
2018-07-23T14:46:02.564Z,6.72
2018-07-23T14:48:30.719Z,5.92
2018-07-23T14:50:59.242Z,7.55
2018-07-23T14:53:27.848Z,6.55
2018-07-23T14:55:56.294Z,5.67
2018-07-23T14:58:24.726Z,5.60
2018-07-23T15:00:53.399Z,5.90
2018-07-23T15:03:22.056Z,8.38
2018-07-23T15:05:50.635Z,5.83
2018-07-23T15:08:19.225Z,8.75
2018-07-23T15:10:47.887Z,6.05
2018-07-23T15:13:16.522Z,4.87
2018-07-23T15:15:45.724Z,4.92
2018-07-23T15:18:14.562Z,8.35
2018-07-23T15:20:43.722Z,4.80
2018-07-23T15:23:12.451Z,5.40
2018-07-23T15:25:41.383Z,8.13
2018-07-23T15:28:09.931Z,5.58
2018-07-23T15:30:38.535Z,5.85
2018-07-23T15:33:07.261Z,9.10
2018-07-23T15:35:36.084Z,7.35
2018-07-23T15:38:04.887Z,5.80
2018-07-23T15:40:33.742Z,5.22
2018-07-23T15:43:02.414Z,5.85
2018-07-23T15:45:31.674Z,5.67
2018-07-23T15:48:00.342Z,6.60
2018-07-23T15:50:29.331Z,5.83
2018-07-23T15:52:58.018Z,5.30
2018-07-23T15:55:27.430Z,6.45
2018-07-23T15:57:56.083Z,6.83
2018-07-23T16:00:26.079Z,4.85
2018-07-23T16:02:54.658Z,5.47
2018-07-23T16:05:23.177Z,6.12
2018-07-23T16:07:51.663Z,6.45
2018-07-23T16:10:20.351Z,6.83
2018-07-23T16:12:48.978Z,6.13
2018-07-23T16:15:17.648Z,6.63
2018-07-23T16:17:46.312Z,6.80
2018-07-23T16:20:14.994Z,7.57
2018-07-23T16:22:43.690Z,6.97
2018-07-23T16:25:12.474Z,6.83
2018-07-23T16:27:40.951Z,7.13
2018-07-23T16:30:10.064Z,7.17
2018-07-23T16:32:38.603Z,7.93
2018-07-23T16:35:09.070Z,7.47
2018-07-23T16:37:37.757Z,9.80
2018-07-23T16:40:06.523Z,9.50
2018-07-23T16:42:35.321Z,7.80
2018-07-23T16:45:03.918Z,16.37
2018-07-23T16:47:33.379Z,9.10
2018-07-23T16:50:01.877Z,7.03
2018-07-23T16:52:30.553Z,5.80
2018-07-23T16:54:59.151Z,5.80
2018-07-23T16:57:27.663Z,5.87
2018-07-23T16:59:56.227Z,6.40
2018-07-23T17:02:24.881Z,9.30
2018-07-23T17:04:55.022Z,7.87
2018-07-23T17:07:23.539Z,6.27
2018-07-23T17:09:52.297Z,9.77
2018-07-23T17:12:20.806Z,5.93
2018-07-23T17:14:49.296Z,5.67
2018-07-23T17:17:17.850Z,6.90
2018-07-23T17:19:46.384Z,8.80
2018-07-23T17:22:14.886Z,6.00
2018-07-23T17:24:43.556Z,7.03
2018-07-23T17:27:12.243Z,10.13
2018-07-23T17:29:41.138Z,10.63
2018-07-23T17:32:09.651Z,8.67
2018-07-23T17:34:38.205Z,7.63
2018-07-23T17:37:06.741Z,8.70
2018-07-23T17:39:35.311Z,7.20
2018-07-23T17:42:03.901Z,6.83
2018-07-23T17:44:32.691Z,8.37
2018-07-23T17:47:01.146Z,7.63
2018-07-23T17:49:29.778Z,7.43
2018-07-23T17:51:58.227Z,7.07
2018-07-23T17:54:26.760Z,7.77
2018-07-23T17:56:55.422Z,7.80
2018-07-23T17:59:23.887Z,9.70
2018-07-23T18:01:53.780Z,8.07
2018-07-23T18:04:22.516Z,7.97
2018-07-23T18:06:51.059Z,10.13
2018-07-23T18:09:19.665Z,8.60
2018-07-23T18:11:48.196Z,8.10
2018-07-23T18:14:16.836Z,9.90
2018-07-23T18:16:45.748Z,10.70
2018-07-23T18:19:14.199Z,8.73
2018-07-23T18:21:44.402Z,11.60
2018-07-23T18:24:12.987Z,9.40
2018-07-23T18:26:41.664Z,10.40
2018-07-23T18:29:10.491Z,9.37
2018-07-23T18:31:39.118Z,9.57
2018-07-23T18:34:08.011Z,10.20
2018-07-23T18:36:36.529Z,9.83
2018-07-23T18:39:08.585Z,11.73
2018-07-23T18:41:37.503Z,11.27
2018-07-23T18:44:06.207Z,10.27
2018-07-23T18:46:34.796Z,10.40
2018-07-23T18:49:24.841Z,11.30
2018-07-23T18:51:54.252Z,13.67
2018-07-23T18:54:24.027Z,11.00
2018-07-23T18:56:54.165Z,11.67
2018-07-23T18:59:23.080Z,12.23
2018-07-23T19:01:52.292Z,12.03
2018-07-23T19:04:20.981Z,11.90
2018-07-23T19:06:50.151Z,11.20
2018-07-23T19:09:19.875Z,11.50
2018-07-23T19:11:49.727Z,12.70
2018-07-23T19:14:18.762Z,11.53
2018-07-23T19:16:47.863Z,12.97
2018-07-23T19:19:16.438Z,12.33
2018-07-23T19:21:45.008Z,13.10
2018-07-23T19:24:13.571Z,12.13
2018-07-23T19:26:42.207Z,12.93
2018-07-23T19:29:10.813Z,13.23
2018-07-23T19:31:39.606Z,13.33
2018-07-23T19:34:09.583Z,12.67
2018-07-23T19:36:38.103Z,13.10
2018-07-23T19:39:09.089Z,13.03
2018-07-23T19:41:38.287Z,12.80
2018-07-23T19:44:07.496Z,14.50
2018-07-23T19:46:36.015Z,13.87
2018-07-23T19:49:04.738Z,14.03
2018-07-23T19:51:33.494Z,14.80
2018-07-23T19:54:02.111Z,13.53
2018-07-23T19:56:30.799Z,13.90
2018-07-23T19:58:59.286Z,13.80
2018-07-23T20:01:28.009Z,14.00
2018-07-23T20:03:56.528Z,14.17
2018-07-23T20:06:26.262Z,14.80
2018-07-23T20:08:56.045Z,14.30
2018-07-23T20:11:25.363Z,14.83
2018-07-23T20:13:54.151Z,14.80
2018-07-23T20:16:23.459Z,14.53
2018-07-23T20:18:51.999Z,14.83
2018-07-23T20:21:20.645Z,14.43
2018-07-23T20:23:49.294Z,15.67
2018-07-23T20:26:17.947Z,14.10
2018-07-23T20:28:46.403Z,14.93
2018-07-23T20:31:15.017Z,15.13
2018-07-23T20:33:44.989Z,16.20
2018-07-23T20:36:13.720Z,15.43
2018-07-23T20:38:42.235Z,14.73
2018-07-23T20:41:10.901Z,16.77
2018-07-23T20:43:39.606Z,17.50
2018-07-23T20:46:07.714Z,16.77
2018-07-23T20:48:36.167Z,16.07
2018-07-23T20:51:04.647Z,16.07
2018-07-23T20:53:33.173Z,16.30
2018-07-23T20:56:01.599Z,16.30
2018-07-23T20:58:30.115Z,17.83
2018-07-23T21:00:59.022Z,16.87
2018-07-23T21:03:27.699Z,17.30
2018-07-23T21:05:56.266Z,16.30
2018-07-23T21:08:24.865Z,16.50
2018-07-23T21:10:53.358Z,17.43
2018-07-23T21:13:21.854Z,16.37
2018-07-23T21:15:50.631Z,16.83
2018-07-23T21:18:19.112Z,16.60
2018-07-23T21:20:47.536Z,15.83
2018-07-23T21:23:16.043Z,16.67
2018-07-23T21:25:44.619Z,17.07
2018-07-23T21:28:13.240Z,15.40
2018-07-23T21:30:41.727Z,16.40
2018-07-23T21:33:10.252Z,20.80
2018-07-23T21:35:38.779Z,16.97
2018-07-23T21:38:07.330Z,16.63
2018-07-23T21:40:35.834Z,17.10
2018-07-23T21:43:04.411Z,18.37
2018-07-23T21:45:33.047Z,16.43
2018-07-23T21:48:01.897Z,19.37
2018-07-23T21:50:30.513Z,17.13
2018-07-23T21:52:59.163Z,17.10
2018-07-23T21:55:27.705Z,17.60
2018-07-23T21:57:56.210Z,17.33
2018-07-23T22:00:24.807Z,16.90
2018-07-23T22:02:54.960Z,17.07
2018-07-23T22:05:23.447Z,19.00
2018-07-23T22:07:52.191Z,17.77
2018-07-23T22:10:20.625Z,18.47
2018-07-23T22:12:49.213Z,18.20
2018-07-23T22:15:17.680Z,18.03
2018-07-23T22:17:46.405Z,17.43
2018-07-23T22:20:14.990Z,16.97
2018-07-23T22:22:43.458Z,17.57
2018-07-23T22:25:13.351Z,15.93
2018-07-23T22:27:42.058Z,17.73
2018-07-23T22:30:10.579Z,16.43
2018-07-23T22:32:39.036Z,17.40
2018-07-23T22:35:08.525Z,17.23
2018-07-23T22:37:37.086Z,17.30
2018-07-23T22:40:05.668Z,18.20
2018-07-23T22:42:34.124Z,17.87
2018-07-23T22:45:02.736Z,16.73
2018-07-23T22:47:31.551Z,18.77
2018-07-23T22:50:00.083Z,18.17
2018-07-23T22:52:28.642Z,18.73
2018-07-23T22:54:58.238Z,19.60
2018-07-23T22:57:26.708Z,19.17
2018-07-23T22:59:55.177Z,18.93
2018-07-23T23:02:23.750Z,17.27
2018-07-23T23:04:52.316Z,18.87
2018-07-23T23:07:20.767Z,18.23
2018-07-23T23:09:49.658Z,18.23
2018-07-23T23:12:18.282Z,18.00
2018-07-23T23:14:46.752Z,19.13
2018-07-23T23:17:15.234Z,18.43
2018-07-23T23:19:43.707Z,19.00
2018-07-23T23:22:12.162Z,18.17
2018-07-23T23:24:40.720Z,17.13
2018-07-23T23:27:09.466Z,18.97
2018-07-23T23:29:37.937Z,19.07
2018-07-23T23:32:06.362Z,18.43
2018-07-23T23:34:35.279Z,17.73
2018-07-23T23:37:04.432Z,19.47
2018-07-23T23:39:33.098Z,18.60
2018-07-23T23:42:02.262Z,18.40
2018-07-23T23:44:30.841Z,17.67
2018-07-23T23:46:59.323Z,18.73
2018-07-23T23:49:28.008Z,17.53
2018-07-23T23:51:56.622Z,18.73
2018-07-23T23:54:25.252Z,18.67
2018-07-23T23:56:53.729Z,19.83
2018-07-23T23:59:22.242Z,19.17
